createdAt,value
2023-04-06T00:00:27.241Z,8.32
2023-04-06T00:02:54.175Z,8.40
2023-04-06T00:05:21.656Z,8.02
2023-04-06T00:07:48.403Z,6.88
2023-04-06T00:10:15.598Z,6.70
2023-04-06T00:12:42.373Z,8.40
2023-04-06T00:15:09.627Z,7.43
2023-04-06T00:17:36.810Z,8.07
2023-04-06T00:20:04.057Z,6.57
2023-04-06T00:22:30.864Z,6.63
2023-04-06T00:24:57.600Z,6.50
2023-04-06T00:27:24.581Z,5.75
2023-04-06T00:29:51.330Z,6.57
2023-04-06T00:32:18.144Z,7.00
2023-04-06T00:34:45.039Z,7.78
2023-04-06T00:37:12.976Z,6.07
2023-04-06T00:39:39.808Z,6.68
2023-04-06T00:42:16.032Z,6.18
2023-04-06T00:44:43.003Z,6.20
2023-04-06T00:47:09.985Z,7.32
2023-04-06T00:49:36.875Z,6.55
2023-04-06T00:52:03.772Z,6.68
2023-04-06T00:54:31.770Z,6.90
2023-04-06T00:56:58.845Z,6.63
2023-04-06T00:59:26.144Z,6.28
2023-04-06T01:01:53.116Z,6.70
2023-04-06T01:04:20.016Z,7.07
2023-04-06T01:06:46.788Z,6.85
2023-04-06T01:09:13.635Z,7.10
2023-04-06T01:11:40.396Z,6.57
2023-04-06T01:14:07.495Z,6.80
2023-04-06T01:16:35.217Z,6.28
2023-04-06T01:19:02.225Z,6.53
2023-04-06T01:21:29.145Z,7.53
2023-04-06T01:23:56.107Z,7.38
2023-04-06T01:26:22.926Z,6.20
2023-04-06T01:28:49.715Z,6.47
2023-04-06T01:31:16.768Z,7.38
2023-04-06T01:33:43.643Z,6.05
2023-04-06T01:36:10.405Z,6.70
2023-04-06T01:38:37.159Z,6.53
2023-04-06T01:41:04.021Z,6.90
2023-04-06T01:43:30.796Z,7.93
2023-04-06T01:45:57.667Z,6.88
2023-04-06T01:48:24.615Z,6.55
2023-04-06T01:50:51.379Z,6.53
2023-04-06T01:53:18.204Z,7.10
2023-04-06T01:55:45.247Z,7.47
2023-04-06T01:58:12.235Z,7.30
2023-04-06T02:00:39.096Z,7.47
2023-04-06T02:03:06.234Z,6.65
2023-04-06T02:05:38.830Z,6.82
2023-04-06T02:08:06.350Z,6.75
2023-04-06T02:10:33.866Z,7.90
2023-04-06T02:13:00.838Z,6.28
2023-04-06T02:15:28.230Z,7.18
2023-04-06T02:17:55.218Z,6.30
2023-04-06T02:20:22.090Z,6.63
2023-04-06T02:22:48.876Z,7.95
2023-04-06T02:25:15.740Z,6.82
2023-04-06T02:27:42.495Z,7.57
2023-04-06T02:30:09.777Z,6.75
2023-04-06T02:32:36.512Z,8.02
2023-04-06T02:35:03.695Z,8.27
2023-04-06T02:37:30.481Z,7.28
2023-04-06T02:39:57.383Z,7.57
2023-04-06T02:42:24.158Z,7.43
2023-04-06T02:44:51.141Z,7.97
2023-04-06T02:47:17.958Z,7.78
2023-04-06T02:49:45.511Z,7.40
2023-04-06T02:52:13.745Z,6.80
2023-04-06T02:54:40.531Z,7.18
2023-04-06T02:57:07.317Z,6.75
2023-04-06T02:59:34.227Z,7.78
2023-04-06T03:02:01.088Z,8.38
2023-04-06T03:04:27.950Z,8.60
2023-04-06T03:06:56.250Z,7.82
2023-04-06T03:09:23.112Z,7.88
2023-04-06T03:11:49.923Z,7.72
2023-04-06T03:14:18.722Z,6.85
2023-04-06T03:16:45.501Z,7.18
2023-04-06T03:19:12.351Z,8.18
2023-04-06T03:21:39.172Z,7.70
2023-04-06T03:24:06.905Z,7.50
2023-04-06T03:26:33.726Z,7.45
2023-04-06T03:29:00.479Z,7.20
2023-04-06T03:31:28.084Z,6.82
2023-04-06T03:33:54.914Z,7.70
2023-04-06T03:36:21.732Z,6.90
2023-04-06T03:38:48.586Z,6.75
2023-04-06T03:41:15.774Z,7.45
2023-04-06T03:43:42.631Z,6.82
2023-04-06T03:46:09.426Z,7.82
2023-04-06T03:48:36.287Z,7.15
2023-04-06T03:51:03.079Z,7.05
2023-04-06T03:53:29.858Z,8.00
2023-04-06T03:55:56.667Z,8.02
2023-04-06T03:58:23.515Z,7.60
2023-04-06T04:00:50.487Z,7.40
2023-04-06T04:03:17.398Z,8.07
2023-04-06T04:05:44.456Z,7.43
2023-04-06T04:08:11.473Z,7.13
2023-04-06T04:10:38.268Z,6.57
2023-04-06T04:13:05.061Z,6.80
2023-04-06T04:15:31.793Z,7.32
2023-04-06T04:17:58.589Z,6.82
2023-04-06T04:20:25.391Z,7.72
2023-04-06T04:22:52.195Z,7.35
2023-04-06T04:25:19.000Z,7.60
2023-04-06T04:27:45.840Z,7.28
2023-04-06T04:30:12.799Z,7.90
2023-04-06T04:32:39.676Z,10.40
2023-04-06T04:35:06.925Z,7.88
2023-04-06T04:37:35.733Z,8.18
2023-04-06T04:40:02.678Z,7.43
2023-04-06T04:42:29.536Z,8.45
2023-04-06T04:44:56.349Z,7.25
2023-04-06T04:47:23.226Z,8.05
2023-04-06T04:49:49.989Z,7.25
2023-04-06T04:52:16.797Z,8.40
2023-04-06T04:54:43.618Z,7.35
2023-04-06T04:57:10.470Z,8.70
2023-04-06T04:59:37.444Z,9.50
2023-04-06T05:02:04.416Z,8.45
2023-04-06T05:04:31.496Z,8.70
2023-04-06T05:07:09.289Z,8.77
2023-04-06T05:09:36.500Z,8.05
2023-04-06T05:12:03.527Z,8.05
2023-04-06T05:14:30.697Z,7.65
2023-04-06T05:16:57.499Z,6.90
2023-04-06T05:19:24.368Z,7.28
2023-04-06T05:21:51.308Z,7.30
2023-04-06T05:24:18.062Z,7.50
2023-04-06T05:26:44.920Z,7.18
2023-04-06T05:29:12.051Z,8.07
2023-04-06T05:31:47.804Z,7.57
2023-04-06T05:34:14.906Z,7.28
2023-04-06T05:36:41.967Z,7.53
2023-04-06T05:39:08.982Z,8.85
2023-04-06T05:41:36.258Z,7.82
2023-04-06T05:44:03.045Z,9.07
2023-04-06T05:46:29.907Z,11.05
2023-04-06T05:48:57.169Z,10.88
2023-04-06T05:51:24.046Z,10.80
2023-04-06T05:53:50.919Z,9.68
2023-04-06T05:56:17.696Z,10.25
2023-04-06T05:58:44.450Z,10.50
2023-04-06T06:01:11.761Z,9.20
2023-04-06T06:03:38.608Z,10.05
2023-04-06T06:06:05.962Z,9.30
2023-04-06T06:08:32.826Z,9.90
2023-04-06T06:10:59.723Z,8.88
2023-04-06T06:13:26.744Z,10.52
2023-04-06T06:15:53.577Z,8.70
2023-04-06T06:18:20.421Z,9.95
2023-04-06T06:20:47.165Z,9.25
2023-04-06T06:23:13.907Z,9.13
2023-04-06T06:25:40.791Z,8.40
2023-04-06T06:28:07.729Z,9.75
2023-04-06T06:30:34.742Z,9.80
2023-04-06T06:33:01.912Z,8.45
2023-04-06T06:35:28.848Z,10.55
2023-04-06T06:37:55.740Z,10.85
2023-04-06T06:40:25.033Z,9.55
2023-04-06T06:42:52.382Z,10.60
2023-04-06T06:45:19.526Z,11.55
2023-04-06T06:47:46.628Z,10.35
2023-04-06T06:50:13.550Z,12.00
2023-04-06T06:52:41.381Z,11.70
2023-04-06T06:55:09.498Z,10.48
2023-04-06T06:57:36.524Z,11.20
2023-04-06T07:00:04.782Z,11.65
2023-04-06T07:02:31.874Z,11.55
2023-04-06T07:04:58.636Z,9.23
2023-04-06T07:07:25.454Z,11.10
2023-04-06T07:09:52.228Z,11.40
2023-04-06T07:12:19.188Z,11.07
2023-04-06T07:14:45.979Z,8.98
2023-04-06T07:17:12.839Z,8.77
2023-04-06T07:19:40.218Z,9.23
2023-04-06T07:22:07.208Z,7.55
2023-04-06T07:24:34.013Z,9.25
2023-04-06T07:27:01.669Z,7.72
2023-04-06T07:29:28.850Z,7.90
2023-04-06T07:31:56.258Z,9.25
2023-04-06T07:34:23.582Z,8.18
2023-04-06T07:36:50.383Z,7.47
2023-04-06T07:39:17.147Z,9.65
2023-04-06T07:41:43.990Z,9.07
2023-04-06T07:44:10.995Z,9.02
2023-04-06T07:46:38.141Z,8.68
2023-04-06T07:49:05.204Z,8.57
2023-04-06T07:51:32.363Z,8.23
2023-04-06T07:53:59.644Z,8.10
2023-04-06T07:56:26.639Z,9.30
2023-04-06T07:58:56.508Z,8.70
2023-04-06T08:01:23.431Z,9.17
2023-04-06T08:03:51.359Z,9.40
2023-04-06T08:06:18.442Z,8.90
2023-04-06T08:08:45.500Z,8.47
2023-04-06T08:11:12.349Z,9.53
2023-04-06T08:13:39.125Z,8.87
2023-04-06T08:16:06.304Z,8.73
2023-04-06T08:18:33.230Z,8.90
2023-04-06T08:21:00.166Z,9.53
2023-04-06T08:23:26.928Z,8.70
2023-04-06T08:25:55.203Z,8.70
2023-04-06T08:28:22.282Z,9.37
2023-04-06T08:30:49.238Z,9.17
2023-04-06T08:33:16.591Z,8.70
2023-04-06T08:35:43.480Z,9.60
2023-04-06T08:38:10.321Z,8.83
2023-04-06T08:40:38.644Z,9.13
2023-04-06T08:43:10.070Z,7.90
2023-04-06T08:45:36.988Z,8.80
2023-04-06T08:48:04.453Z,9.87
2023-04-06T08:50:33.259Z,9.30
2023-04-06T08:53:00.996Z,9.90
2023-04-06T08:55:28.427Z,8.20
2023-04-06T08:58:01.936Z,8.77
2023-04-06T09:00:30.676Z,9.43
2023-04-06T09:02:59.116Z,9.90
2023-04-06T09:05:26.782Z,9.37
2023-04-06T09:07:53.957Z,8.23
2023-04-06T09:10:21.709Z,8.53
2023-04-06T09:12:48.537Z,7.77
2023-04-06T09:15:22.928Z,8.30
2023-04-06T09:17:52.936Z,7.63
2023-04-06T09:20:27.501Z,8.30
2023-04-06T09:22:54.625Z,7.93
2023-04-06T09:25:26.458Z,8.03
2023-04-06T09:28:11.578Z,8.33
2023-04-06T09:30:50.292Z,7.33
2023-04-06T09:33:24.120Z,7.33
2023-04-06T09:35:51.981Z,8.40
2023-04-06T09:38:18.800Z,8.90
2023-04-06T09:41:00.761Z,7.43
2023-04-06T09:43:28.912Z,7.70
2023-04-06T09:45:57.517Z,6.40
2023-04-06T09:48:28.129Z,7.83
2023-04-06T09:51:04.119Z,7.50
2023-04-06T09:53:33.370Z,7.23
2023-04-06T09:56:03.630Z,6.97
2023-04-06T09:58:35.776Z,7.67
2023-04-06T10:01:13.412Z,7.20
2023-04-06T10:03:59.490Z,6.63
2023-04-06T10:06:29.568Z,7.17
2023-04-06T10:08:58.111Z,6.43
2023-04-06T10:11:25.603Z,7.03
2023-04-06T10:13:52.419Z,8.13
2023-04-06T10:16:19.599Z,6.80
2023-04-06T10:18:53.200Z,7.10
2023-04-06T10:21:27.532Z,7.70
2023-04-06T10:23:59.907Z,6.77
2023-04-06T10:26:27.284Z,7.13
2023-04-06T10:28:55.246Z,6.80
2023-04-06T10:31:29.545Z,7.20
2023-04-06T10:34:01.676Z,7.10
2023-04-06T10:36:37.895Z,6.93
2023-04-06T10:39:06.761Z,6.80
2023-04-06T10:41:44.516Z,6.63
2023-04-06T10:44:31.578Z,6.50
2023-04-06T10:47:01.762Z,6.87
2023-04-06T10:49:28.760Z,7.50
2023-04-06T10:51:57.110Z,5.97
2023-04-06T10:54:27.046Z,7.30
2023-04-06T10:56:54.058Z,6.83
2023-04-06T10:59:25.975Z,7.40
2023-04-06T11:01:54.051Z,6.70
2023-04-06T11:04:22.047Z,6.93
2023-04-06T11:06:50.255Z,6.00
2023-04-06T11:09:27.779Z,6.50
2023-04-06T11:11:56.355Z,7.70
2023-04-06T11:14:23.261Z,7.20
2023-04-06T11:16:53.439Z,7.33
2023-04-06T11:19:20.664Z,7.90
2023-04-06T11:21:49.356Z,7.13
2023-04-06T11:24:24.157Z,7.13
2023-04-06T11:27:02.184Z,6.80
2023-04-06T11:29:31.342Z,6.90
2023-04-06T11:32:06.301Z,6.07
2023-04-06T11:34:41.855Z,6.97
2023-04-06T11:37:10.560Z,7.30
2023-04-06T11:39:58.056Z,7.13
2023-04-06T11:42:26.665Z,6.83
2023-04-06T11:44:55.979Z,6.70
2023-04-06T11:47:34.470Z,7.40
2023-04-06T11:50:15.458Z,7.30
2023-04-06T11:52:43.487Z,7.27
2023-04-06T11:55:18.046Z,7.80
2023-04-06T11:57:46.170Z,7.83
2023-04-06T12:00:13.588Z,7.53
2023-04-06T12:02:40.932Z,7.87
2023-04-06T12:05:09.416Z,7.53
2023-04-06T12:07:37.180Z,7.77
2023-04-06T12:10:04.993Z,7.27
2023-04-06T12:12:32.138Z,7.90
2023-04-06T12:14:59.521Z,7.40
2023-04-06T12:17:26.471Z,7.30
2023-04-06T12:19:53.288Z,6.70
2023-04-06T12:22:20.265Z,7.10
2023-04-06T12:24:47.130Z,6.40
2023-04-06T12:27:13.931Z,7.20
2023-04-06T12:29:40.670Z,7.27
2023-04-06T12:32:07.616Z,6.17
2023-04-06T12:34:34.404Z,5.60
2023-04-06T12:37:01.539Z,6.90
2023-04-06T12:39:31.834Z,6.73
2023-04-06T12:41:58.713Z,6.67
2023-04-06T12:44:26.935Z,7.07
2023-04-06T12:46:54.134Z,6.80
2023-04-06T12:49:21.215Z,6.80
2023-04-06T12:51:47.954Z,6.73
2023-04-06T12:54:14.926Z,5.87
2023-04-06T12:56:42.180Z,6.97
2023-04-06T12:59:09.118Z,7.03
2023-04-06T13:01:36.367Z,6.10
2023-04-06T13:04:03.487Z,6.27
2023-04-06T13:06:31.244Z,6.90
2023-04-06T13:08:58.059Z,6.33
2023-04-06T13:11:28.641Z,6.70
2023-04-06T13:13:55.904Z,5.80
2023-04-06T13:16:22.880Z,7.47
2023-04-06T13:18:49.967Z,6.87
2023-04-06T13:21:17.799Z,5.83
2023-04-06T13:23:45.454Z,6.77
2023-04-06T13:26:14.359Z,6.30
2023-04-06T13:28:41.787Z,7.30
2023-04-06T13:31:09.412Z,6.43
2023-04-06T13:33:36.746Z,7.03
2023-04-06T13:36:03.907Z,6.90
2023-04-06T13:38:30.981Z,6.97
2023-04-06T13:40:57.919Z,6.63
2023-04-06T13:43:27.132Z,5.70
2023-04-06T13:45:59.545Z,6.33
2023-04-06T13:48:27.213Z,7.60
2023-04-06T13:50:54.192Z,6.90
2023-04-06T13:53:21.237Z,7.27
2023-04-06T13:55:55.534Z,7.17
2023-04-06T13:58:22.324Z,8.03
2023-04-06T14:00:49.208Z,7.90
2023-04-06T14:03:16.401Z,7.10
2023-04-06T14:05:43.408Z,8.30
2023-04-06T14:08:10.749Z,7.57
2023-04-06T14:10:42.923Z,7.53
2023-04-06T14:13:09.614Z,6.67
2023-04-06T14:15:36.406Z,6.70
2023-04-06T14:18:03.472Z,6.60
2023-04-06T14:20:33.372Z,8.10
2023-04-06T14:23:04.376Z,8.40
2023-04-06T14:25:32.974Z,8.20
2023-04-06T14:27:59.941Z,6.77
2023-04-06T14:30:26.865Z,8.73
2023-04-06T14:32:53.697Z,8.40
2023-04-06T14:35:20.549Z,7.93
2023-04-06T14:37:48.259Z,7.53
2023-04-06T14:40:15.161Z,8.27
2023-04-06T14:42:42.212Z,7.90
2023-04-06T14:45:09.215Z,8.87
2023-04-06T14:47:35.910Z,7.50
2023-04-06T14:50:02.710Z,6.60
2023-04-06T14:52:31.976Z,7.43
2023-04-06T14:54:59.362Z,7.60
2023-04-06T14:57:26.066Z,8.00
2023-04-06T14:59:55.113Z,7.53
2023-04-06T15:02:22.059Z,7.83
2023-04-06T15:04:49.029Z,6.97
2023-04-06T15:07:15.794Z,7.90
2023-04-06T15:09:42.535Z,7.73
2023-04-06T15:12:09.272Z,6.23
2023-04-06T15:14:36.194Z,7.43
2023-04-06T15:17:02.947Z,6.50
2023-04-06T15:19:29.691Z,6.67
2023-04-06T15:21:56.412Z,7.60
2023-04-06T15:24:23.094Z,6.70
2023-04-06T15:26:49.848Z,7.03
2023-04-06T15:29:16.633Z,6.67
2023-04-06T15:31:43.537Z,6.77
2023-04-06T15:34:10.482Z,6.60
2023-04-06T15:36:37.425Z,5.80
2023-04-06T15:39:09.477Z,7.30
2023-04-06T15:41:37.266Z,6.00
2023-04-06T15:44:04.723Z,8.40
2023-04-06T15:46:31.712Z,7.50
2023-04-06T15:48:58.520Z,7.50
2023-04-06T15:51:26.229Z,6.60
2023-04-06T15:53:53.107Z,6.40
2023-04-06T15:56:19.912Z,6.57
2023-04-06T15:58:47.112Z,10.90
2023-04-06T16:01:16.007Z,14.00
2023-04-06T16:03:43.416Z,16.27
2023-04-06T16:06:10.764Z,10.20
2023-04-06T16:08:38.464Z,6.33
2023-04-06T16:11:05.864Z,6.63
2023-04-06T16:13:33.787Z,6.20
2023-04-06T16:16:01.031Z,6.53
2023-04-06T16:18:27.973Z,7.20
2023-04-06T16:20:54.808Z,7.27
2023-04-06T16:23:21.674Z,6.57
2023-04-06T16:25:50.287Z,6.87
2023-04-06T16:28:17.605Z,7.57
2023-04-06T16:30:45.854Z,7.00
2023-04-06T16:33:13.918Z,7.50
2023-04-06T16:35:47.634Z,15.57
2023-04-06T16:38:15.140Z,13.43
2023-04-06T16:40:42.068Z,7.30
2023-04-06T16:43:09.979Z,8.23
2023-04-06T16:45:38.207Z,7.87
2023-04-06T16:48:05.900Z,6.50
2023-04-06T16:50:32.819Z,7.60
2023-04-06T16:52:59.619Z,10.07
2023-04-06T16:55:26.395Z,10.60
2023-04-06T16:57:56.012Z,9.90
2023-04-06T17:00:23.064Z,10.17
2023-04-06T17:02:49.988Z,7.57
2023-04-06T17:05:21.827Z,6.93
2023-04-06T17:07:48.722Z,5.33
2023-04-06T17:10:16.876Z,4.30
2023-04-06T17:12:46.520Z,4.70
2023-04-06T17:15:14.358Z,5.60
2023-04-06T17:17:41.406Z,5.33
2023-04-06T17:20:09.188Z,4.57
2023-04-06T17:22:36.337Z,5.23
2023-04-06T17:25:05.429Z,4.80
2023-04-06T17:27:32.594Z,4.13
2023-04-06T17:30:04.784Z,4.87
2023-04-06T17:32:31.794Z,3.90
2023-04-06T17:34:58.639Z,4.00
2023-04-06T17:37:25.381Z,4.17
2023-04-06T17:39:52.216Z,4.67
2023-04-06T17:42:18.958Z,3.90
2023-04-06T17:44:51.551Z,5.10
2023-04-06T17:47:19.882Z,22.00
2023-04-06T17:49:46.996Z,5.90
2023-04-06T17:52:13.865Z,3.73
2023-04-06T17:54:40.611Z,3.63
2023-04-06T17:57:08.470Z,2.90
2023-04-06T17:59:35.319Z,3.00
2023-04-06T18:02:04.197Z,3.20
2023-04-06T18:04:31.296Z,2.97
2023-04-06T18:06:58.162Z,3.20
2023-04-06T18:11:57.228Z,3.07
2023-04-06T18:14:24.436Z,3.90
2023-04-06T18:16:51.273Z,4.90
2023-04-06T18:19:18.034Z,4.20
2023-04-06T18:21:44.767Z,3.77
2023-04-06T18:24:18.786Z,4.13
2023-04-06T18:26:50.191Z,4.50
2023-04-06T18:29:17.003Z,3.67
2023-04-06T18:31:44.805Z,4.00
2023-04-06T18:34:11.556Z,3.63
2023-04-06T18:36:38.374Z,3.63
2023-04-06T18:39:05.317Z,3.13
2023-04-06T18:41:32.106Z,3.43
2023-04-06T18:43:58.812Z,4.20
2023-04-06T18:46:25.837Z,5.23
2023-04-06T18:48:52.586Z,4.07
2023-04-06T18:51:19.431Z,4.57
2023-04-06T18:53:46.382Z,5.10
2023-04-06T18:56:18.508Z,4.20
2023-04-06T18:58:46.320Z,4.90
2023-04-06T19:01:28.057Z,4.13
2023-04-06T19:03:56.774Z,4.93
2023-04-06T19:06:24.936Z,4.40
2023-04-06T19:08:51.607Z,3.87
2023-04-06T19:11:18.658Z,3.70
2023-04-06T19:13:49.890Z,4.10
2023-04-06T19:16:17.556Z,3.90
2023-04-06T19:18:45.581Z,4.80
2023-04-06T19:21:17.118Z,4.50
2023-04-06T19:23:48.610Z,4.30
2023-04-06T19:26:17.234Z,4.87
2023-04-06T19:28:44.970Z,4.33
2023-04-06T19:31:14.439Z,6.60
2023-04-06T19:33:41.513Z,12.03
2023-04-06T19:36:09.163Z,9.13
2023-04-06T19:38:36.820Z,7.83
2023-04-06T19:41:04.139Z,5.00
2023-04-06T19:43:30.944Z,4.27
2023-04-06T19:45:57.777Z,4.20
2023-04-06T19:48:24.517Z,4.30
2023-04-06T19:50:54.385Z,4.03
2023-04-06T19:53:22.206Z,3.87
2023-04-06T19:55:49.028Z,3.57
2023-04-06T19:58:15.821Z,3.50
2023-04-06T20:00:42.727Z,4.33
2023-04-06T20:03:09.760Z,4.10
2023-04-06T20:05:36.652Z,6.07
2023-04-06T20:08:03.476Z,6.07
2023-04-06T20:10:30.503Z,6.27
2023-04-06T20:12:57.954Z,5.90
2023-04-06T20:15:25.526Z,6.03
2023-04-06T20:17:52.477Z,6.00
2023-04-06T20:20:19.234Z,6.60
2023-04-06T20:22:49.901Z,14.50
2023-04-06T20:25:17.786Z,11.13
2023-04-06T20:27:45.645Z,9.57
2023-04-06T20:30:17.346Z,7.30
2023-04-06T20:32:44.387Z,6.83
2023-04-06T20:35:11.441Z,7.23
2023-04-06T20:37:38.778Z,6.93
2023-04-06T20:40:06.537Z,7.35
2023-04-06T20:42:33.369Z,6.17
2023-04-06T20:45:01.525Z,6.18
2023-04-06T20:47:28.373Z,12.68
2023-04-06T20:49:55.419Z,8.07
2023-04-06T20:52:22.363Z,6.80
2023-04-06T20:54:50.640Z,6.67
2023-04-06T20:57:17.485Z,6.50
2023-04-06T20:59:45.294Z,7.63
2023-04-06T21:02:12.329Z,6.78
2023-04-06T21:04:39.456Z,6.70
2023-04-06T21:07:07.331Z,5.95
2023-04-06T21:09:39.106Z,4.50
2023-04-06T21:12:06.901Z,5.30
2023-04-06T21:14:33.806Z,6.00
2023-04-06T21:17:00.772Z,6.72
2023-04-06T21:19:27.876Z,6.90
2023-04-06T21:21:55.128Z,7.90
2023-04-06T21:24:21.968Z,7.30
2023-04-06T21:26:49.000Z,4.88
2023-04-06T21:29:15.869Z,4.88
2023-04-06T21:31:42.827Z,4.07
2023-04-06T21:34:12.987Z,4.57
2023-04-06T21:36:41.356Z,4.15
2023-04-06T21:39:08.469Z,3.75
2023-04-06T21:41:35.700Z,4.03
2023-04-06T21:44:02.550Z,4.35
2023-04-06T21:46:29.444Z,3.55
2023-04-06T21:48:56.213Z,4.80
2023-04-06T21:51:23.349Z,4.82
2023-04-06T21:53:51.751Z,3.90
2023-04-06T21:56:22.804Z,4.70
2023-04-06T21:58:50.331Z,4.25
2023-04-06T22:01:17.840Z,4.75
2023-04-06T22:03:46.110Z,4.95
2023-04-06T22:06:13.283Z,4.30
2023-04-06T22:08:40.111Z,4.15
2023-04-06T22:11:09.133Z,5.07
2023-04-06T22:13:36.791Z,5.30
2023-04-06T22:16:04.463Z,4.85
2023-04-06T22:18:31.397Z,4.70
2023-04-06T22:20:58.233Z,5.60
2023-04-06T22:23:25.561Z,4.82
2023-04-06T22:25:53.012Z,5.22
2023-04-06T22:28:19.720Z,6.18
2023-04-06T22:30:46.550Z,6.00
2023-04-06T22:33:13.387Z,5.20
2023-04-06T22:35:40.379Z,5.53
2023-04-06T22:38:07.188Z,5.10
2023-04-06T22:40:34.031Z,5.15
2023-04-06T22:43:00.815Z,6.65
2023-04-06T22:45:27.624Z,5.53
2023-04-06T22:47:54.432Z,5.90
2023-04-06T22:50:21.906Z,5.25
2023-04-06T22:52:48.824Z,5.95
2023-04-06T22:55:15.760Z,6.30
2023-04-06T22:57:42.671Z,6.05
2023-04-06T23:00:10.205Z,5.63
2023-04-06T23:02:37.037Z,5.57
2023-04-06T23:05:03.898Z,5.78
2023-04-06T23:07:32.604Z,5.30
2023-04-06T23:09:59.628Z,5.68
2023-04-06T23:12:26.559Z,6.40
2023-04-06T23:14:53.418Z,6.00
2023-04-06T23:17:20.150Z,4.97
2023-04-06T23:19:47.235Z,5.82
2023-04-06T23:22:14.011Z,5.30
2023-04-06T23:24:40.799Z,5.28
2023-04-06T23:27:07.512Z,5.53
2023-04-06T23:29:34.372Z,5.10
2023-04-06T23:32:01.413Z,5.28
2023-04-06T23:34:28.356Z,5.20
2023-04-06T23:36:55.224Z,5.40
2023-04-06T23:39:22.027Z,5.45
2023-04-06T23:41:48.739Z,5.78
2023-04-06T23:44:15.489Z,4.65
2023-04-06T23:46:42.277Z,5.72
2023-04-06T23:49:09.203Z,5.20
2023-04-06T23:51:36.091Z,6.38
2023-04-06T23:54:02.907Z,6.40
2023-04-06T23:56:31.733Z,6.05
2023-04-06T23:58:58.541Z,6.60
